sensor_id;sensor_type;location;lat;lon;timestamp;temperature;humidity
63317;DHT22;49822;41.468;13.560;2023-04-15T00:01:43;7.60;86.80
63317;DHT22;49822;41.468;13.560;2023-04-15T00:04:11;7.70;86.80
63317;DHT22;49822;41.468;13.560;2023-04-15T00:06:38;7.60;86.60
63317;DHT22;49822;41.468;13.560;2023-04-15T00:09:06;7.90;86.30
63317;DHT22;49822;41.468;13.560;2023-04-15T00:11:33;7.80;86.40
63317;DHT22;49822;41.468;13.560;2023-04-15T00:14:01;7.90;86.50
63317;DHT22;49822;41.468;13.560;2023-04-15T00:16:28;7.80;85.70
63317;DHT22;49822;41.468;13.560;2023-04-15T00:18:57;7.80;85.60
63317;DHT22;49822;41.468;13.560;2023-04-15T00:21:25;7.80;85.40
63317;DHT22;49822;41.468;13.560;2023-04-15T00:23:54;7.80;85.70
63317;DHT22;49822;41.468;13.560;2023-04-15T00:26:21;7.80;85.70
63317;DHT22;49822;41.468;13.560;2023-04-15T00:28:49;7.90;85.40
63317;DHT22;49822;41.468;13.560;2023-04-15T00:31:17;7.70;85.80
63317;DHT22;49822;41.468;13.560;2023-04-15T00:33:45;7.60;86.00
63317;DHT22;49822;41.468;13.560;2023-04-15T00:36:12;7.70;85.90
63317;DHT22;49822;41.468;13.560;2023-04-15T00:38:40;7.50;86.40
63317;DHT22;49822;41.468;13.560;2023-04-15T00:41:09;7.30;87.00
63317;DHT22;49822;41.468;13.560;2023-04-15T00:43:37;7.30;87.40
63317;DHT22;49822;41.468;13.560;2023-04-15T00:46:05;7.40;87.30
63317;DHT22;49822;41.468;13.560;2023-04-15T00:48:34;7.50;86.50
63317;DHT22;49822;41.468;13.560;2023-04-15T00:51:01;7.60;86.30
63317;DHT22;49822;41.468;13.560;2023-04-15T00:53:29;7.50;86.50
63317;DHT22;49822;41.468;13.560;2023-04-15T00:55:57;7.50;86.70
63317;DHT22;49822;41.468;13.560;2023-04-15T00:58:25;7.70;86.40
63317;DHT22;49822;41.468;13.560;2023-04-15T01:00:55;7.40;86.00
63317;DHT22;49822;41.468;13.560;2023-04-15T01:03:23;7.20;86.90
63317;DHT22;49822;41.468;13.560;2023-04-15T01:05:51;7.20;87.40
63317;DHT22;49822;41.468;13.560;2023-04-15T01:08:28;7.20;88.00
63317;DHT22;49822;41.468;13.560;2023-04-15T01:10:56;7.40;87.90
63317;DHT22;49822;41.468;13.560;2023-04-15T01:13:24;7.40;87.70
63317;DHT22;49822;41.468;13.560;2023-04-15T01:15:53;7.50;87.40
63317;DHT22;49822;41.468;13.560;2023-04-15T01:18:22;7.50;87.30
63317;DHT22;49822;41.468;13.560;2023-04-15T01:20:50;7.50;86.50
63317;DHT22;49822;41.468;13.560;2023-04-15T01:23:18;7.60;86.10
63317;DHT22;49822;41.468;13.560;2023-04-15T01:25:45;7.50;85.50
63317;DHT22;49822;41.468;13.560;2023-04-15T01:28:14;7.50;86.00
63317;DHT22;49822;41.468;13.560;2023-04-15T01:30:43;7.50;86.20
63317;DHT22;49822;41.468;13.560;2023-04-15T01:33:10;7.40;86.30
63317;DHT22;49822;41.468;13.560;2023-04-15T01:35:38;7.50;86.80
63317;DHT22;49822;41.468;13.560;2023-04-15T01:38:08;7.60;86.70
63317;DHT22;49822;41.468;13.560;2023-04-15T01:40:38;7.50;86.20
63317;DHT22;49822;41.468;13.560;2023-04-15T01:43:06;7.60;86.10
63317;DHT22;49822;41.468;13.560;2023-04-15T01:45:37;7.50;86.20
63317;DHT22;49822;41.468;13.560;2023-04-15T01:48:07;7.60;86.50
63317;DHT22;49822;41.468;13.560;2023-04-15T01:50:36;7.60;87.00
63317;DHT22;49822;41.468;13.560;2023-04-15T01:53:04;7.60;87.00
63317;DHT22;49822;41.468;13.560;2023-04-15T01:55:31;7.60;86.60
63317;DHT22;49822;41.468;13.560;2023-04-15T01:57:58;7.70;86.50
63317;DHT22;49822;41.468;13.560;2023-04-15T02:00:27;7.70;86.40
63317;DHT22;49822;41.468;13.560;2023-04-15T02:02:58;7.70;86.20
63317;DHT22;49822;41.468;13.560;2023-04-15T02:05:26;7.50;86.10
63317;DHT22;49822;41.468;13.560;2023-04-15T02:07:54;7.80;86.00
63317;DHT22;49822;41.468;13.560;2023-04-15T02:10:21;7.60;86.00
63317;DHT22;49822;41.468;13.560;2023-04-15T02:12:49;7.50;86.60
63317;DHT22;49822;41.468;13.560;2023-04-15T02:15:19;7.40;87.10
63317;DHT22;49822;41.468;13.560;2023-04-15T02:17:51;7.20;87.40
63317;DHT22;49822;41.468;13.560;2023-04-15T02:20:21;7.20;87.60
63317;DHT22;49822;41.468;13.560;2023-04-15T02:22:50;7.30;87.80
63317;DHT22;49822;41.468;13.560;2023-04-15T02:25:18;7.30;87.50
63317;DHT22;49822;41.468;13.560;2023-04-15T02:27:46;7.40;87.20
63317;DHT22;49822;41.468;13.560;2023-04-15T02:30:16;7.50;87.20
63317;DHT22;49822;41.468;13.560;2023-04-15T02:32:49;7.50;87.10
63317;DHT22;49822;41.468;13.560;2023-04-15T02:35:16;7.50;87.60
63317;DHT22;49822;41.468;13.560;2023-04-15T02:37:45;7.40;88.40
63317;DHT22;49822;41.468;13.560;2023-04-15T02:40:13;7.50;88.90
63317;DHT22;49822;41.468;13.560;2023-04-15T02:42:41;7.50;88.90
63317;DHT22;49822;41.468;13.560;2023-04-15T02:45:13;7.50;88.40
63317;DHT22;49822;41.468;13.560;2023-04-15T02:47:43;7.50;88.10
63317;DHT22;49822;41.468;13.560;2023-04-15T02:50:12;7.40;87.90
63317;DHT22;49822;41.468;13.560;2023-04-15T02:52:41;7.40;87.50
63317;DHT22;49822;41.468;13.560;2023-04-15T02:55:10;7.20;88.50
63317;DHT22;49822;41.468;13.560;2023-04-15T02:57:39;7.40;88.90
63317;DHT22;49822;41.468;13.560;2023-04-15T03:00:09;7.20;88.60
63317;DHT22;49822;41.468;13.560;2023-04-15T03:02:43;7.50;88.40
63317;DHT22;49822;41.468;13.560;2023-04-15T03:05:12;7.40;88.70
63317;DHT22;49822;41.468;13.560;2023-04-15T03:07:50;7.60;88.40
63317;DHT22;49822;41.468;13.560;2023-04-15T03:10:19;7.60;88.40
63317;DHT22;49822;41.468;13.560;2023-04-15T03:12:59;7.80;88.00
63317;DHT22;49822;41.468;13.560;2023-04-15T03:15:29;7.80;88.10
63317;DHT22;49822;41.468;13.560;2023-04-15T03:18:00;7.80;87.90
63317;DHT22;49822;41.468;13.560;2023-04-15T03:20:28;7.90;87.90
63317;DHT22;49822;41.468;13.560;2023-04-15T03:22:59;7.90;87.80
63317;DHT22;49822;41.468;13.560;2023-04-15T03:25:27;8.00;87.60
63317;DHT22;49822;41.468;13.560;2023-04-15T03:27:54;7.90;87.40
63317;DHT22;49822;41.468;13.560;2023-04-15T03:30:24;8.00;87.70
63317;DHT22;49822;41.468;13.560;2023-04-15T03:32:55;8.00;87.50
63317;DHT22;49822;41.468;13.560;2023-04-15T03:35:22;8.00;87.80
63317;DHT22;49822;41.468;13.560;2023-04-15T03:37:50;8.00;87.70
63317;DHT22;49822;41.468;13.560;2023-04-15T03:40:17;7.90;87.80
63317;DHT22;49822;41.468;13.560;2023-04-15T03:42:45;7.80;87.80
63317;DHT22;49822;41.468;13.560;2023-04-15T03:45:12;7.90;88.00
63317;DHT22;49822;41.468;13.560;2023-04-15T03:47:40;7.90;88.40
63317;DHT22;49822;41.468;13.560;2023-04-15T03:50:08;7.90;88.30
63317;DHT22;49822;41.468;13.560;2023-04-15T03:52:36;8.00;88.30
63317;DHT22;49822;41.468;13.560;2023-04-15T03:55:04;7.90;88.40
63317;DHT22;49822;41.468;13.560;2023-04-15T03:57:32;8.10;88.30
63317;DHT22;49822;41.468;13.560;2023-04-15T04:00:06;8.10;88.20
63317;DHT22;49822;41.468;13.560;2023-04-15T04:02:37;7.90;88.20
63317;DHT22;49822;41.468;13.560;2023-04-15T04:05:06;7.90;88.30
63317;DHT22;49822;41.468;13.560;2023-04-15T04:07:34;7.90;88.20
63317;DHT22;49822;41.468;13.560;2023-04-15T04:10:01;7.90;88.00
63317;DHT22;49822;41.468;13.560;2023-04-15T04:12:31;7.90;87.90
63317;DHT22;49822;41.468;13.560;2023-04-15T04:14:59;8.10;88.40
63317;DHT22;49822;41.468;13.560;2023-04-15T04:17:27;8.10;88.30
63317;DHT22;49822;41.468;13.560;2023-04-15T04:19:54;7.90;89.20
63317;DHT22;49822;41.468;13.560;2023-04-15T04:22:22;7.80;89.60
63317;DHT22;49822;41.468;13.560;2023-04-15T04:24:50;7.80;89.20
63317;DHT22;49822;41.468;13.560;2023-04-15T04:27:18;7.90;88.90
63317;DHT22;49822;41.468;13.560;2023-04-15T04:29:47;7.80;89.00
63317;DHT22;49822;41.468;13.560;2023-04-15T04:32:16;7.80;88.90
63317;DHT22;49822;41.468;13.560;2023-04-15T04:34:43;7.90;89.70
63317;DHT22;49822;41.468;13.560;2023-04-15T04:37:10;7.70;90.50
63317;DHT22;49822;41.468;13.560;2023-04-15T04:39:38;7.60;90.30
63317;DHT22;49822;41.468;13.560;2023-04-15T04:42:06;7.70;90.20
63317;DHT22;49822;41.468;13.560;2023-04-15T04:44:33;7.80;90.10
63317;DHT22;49822;41.468;13.560;2023-04-15T04:47:01;7.70;89.90
63317;DHT22;49822;41.468;13.560;2023-04-15T04:49:29;8.00;90.00
63317;DHT22;49822;41.468;13.560;2023-04-15T04:51:56;8.00;90.10
63317;DHT22;49822;41.468;13.560;2023-04-15T04:54:24;8.10;89.70
63317;DHT22;49822;41.468;13.560;2023-04-15T04:56:51;8.20;89.50
63317;DHT22;49822;41.468;13.560;2023-04-15T04:59:19;8.30;89.40
63317;DHT22;49822;41.468;13.560;2023-04-15T05:01:47;8.10;89.40
63317;DHT22;49822;41.468;13.560;2023-04-15T05:04:15;8.30;89.90
63317;DHT22;49822;41.468;13.560;2023-04-15T05:06:43;8.20;89.50
63317;DHT22;49822;41.468;13.560;2023-04-15T05:09:10;0.00;0.00
63317;DHT22;49822;41.468;13.560;2023-04-15T05:11:38;8.10;89.30
63317;DHT22;49822;41.468;13.560;2023-04-15T05:14:06;8.00;89.70
63317;DHT22;49822;41.468;13.560;2023-04-15T05:16:35;8.10;89.70
63317;DHT22;49822;41.468;13.560;2023-04-15T05:19:02;8.10;89.70
63317;DHT22;49822;41.468;13.560;2023-04-15T05:21:31;8.20;89.80
63317;DHT22;49822;41.468;13.560;2023-04-15T05:23:58;8.20;89.70
63317;DHT22;49822;41.468;13.560;2023-04-15T05:26:26;8.00;90.30
63317;DHT22;49822;41.468;13.560;2023-04-15T05:28:54;8.20;90.20
63317;DHT22;49822;41.468;13.560;2023-04-15T05:31:21;8.10;90.10
63317;DHT22;49822;41.468;13.560;2023-04-15T05:33:50;8.20;90.30
63317;DHT22;49822;41.468;13.560;2023-04-15T05:36:17;8.10;91.00
63317;DHT22;49822;41.468;13.560;2023-04-15T05:38:45;8.10;90.50
63317;DHT22;49822;41.468;13.560;2023-04-15T05:41:13;8.10;90.60
63317;DHT22;49822;41.468;13.560;2023-04-15T05:43:45;8.40;90.60
63317;DHT22;49822;41.468;13.560;2023-04-15T05:46:13;8.40;90.60
63317;DHT22;49822;41.468;13.560;2023-04-15T05:48:41;8.30;90.20
63317;DHT22;49822;41.468;13.560;2023-04-15T05:51:09;8.50;89.90
63317;DHT22;49822;41.468;13.560;2023-04-15T05:53:37;8.50;89.70
63317;DHT22;49822;41.468;13.560;2023-04-15T05:56:04;8.50;89.50
63317;DHT22;49822;41.468;13.560;2023-04-15T05:58:32;8.70;89.80
63317;DHT22;49822;41.468;13.560;2023-04-15T06:01:00;8.50;90.00
63317;DHT22;49822;41.468;13.560;2023-04-15T06:03:28;8.50;90.20
63317;DHT22;49822;41.468;13.560;2023-04-15T06:05:57;8.40;90.20
63317;DHT22;49822;41.468;13.560;2023-04-15T06:08:24;8.40;90.20
63317;DHT22;49822;41.468;13.560;2023-04-15T06:10:51;8.40;90.00
63317;DHT22;49822;41.468;13.560;2023-04-15T06:13:19;8.50;89.70
63317;DHT22;49822;41.468;13.560;2023-04-15T06:15:46;8.60;89.70
63317;DHT22;49822;41.468;13.560;2023-04-15T06:18:15;8.60;89.70
63317;DHT22;49822;41.468;13.560;2023-04-15T06:20:42;8.70;89.80
63317;DHT22;49822;41.468;13.560;2023-04-15T06:23:09;8.80;89.70
63317;DHT22;49822;41.468;13.560;2023-04-15T06:25:37;8.80;89.90
63317;DHT22;49822;41.468;13.560;2023-04-15T06:28:04;8.80;90.20
63317;DHT22;49822;41.468;13.560;2023-04-15T06:30:34;8.80;90.50
63317;DHT22;49822;41.468;13.560;2023-04-15T06:33:05;8.80;90.90
63317;DHT22;49822;41.468;13.560;2023-04-15T06:35:33;8.80;90.80
63317;DHT22;49822;41.468;13.560;2023-04-15T06:38:01;8.80;91.20
63317;DHT22;49822;41.468;13.560;2023-04-15T06:40:29;8.50;92.50
63317;DHT22;49822;41.468;13.560;2023-04-15T06:45:20;8.20;94.00
63317;DHT22;49822;41.468;13.560;2023-04-15T06:47:56;8.10;95.00
63317;DHT22;49822;41.468;13.560;2023-04-15T06:50:23;8.20;94.40
63317;DHT22;49822;41.468;13.560;2023-04-15T06:52:52;8.40;94.20
63317;DHT22;49822;41.468;13.560;2023-04-15T06:55:20;8.50;93.90
63317;DHT22;49822;41.468;13.560;2023-04-15T06:57:48;8.60;93.50
63317;DHT22;49822;41.468;13.560;2023-04-15T07:00:16;8.70;93.10
63317;DHT22;49822;41.468;13.560;2023-04-15T07:02:48;8.90;93.00
63317;DHT22;49822;41.468;13.560;2023-04-15T07:05:16;8.90;92.70
63317;DHT22;49822;41.468;13.560;2023-04-15T07:07:44;9.20;92.30
63317;DHT22;49822;41.468;13.560;2023-04-15T07:10:12;9.20;92.30
63317;DHT22;49822;41.468;13.560;2023-04-15T07:12:41;9.30;92.50
63317;DHT22;49822;41.468;13.560;2023-04-15T07:15:10;9.30;92.00
63317;DHT22;49822;41.468;13.560;2023-04-15T07:17:40;9.30;91.70
63317;DHT22;49822;41.468;13.560;2023-04-15T07:20:12;9.40;91.90
63317;DHT22;49822;41.468;13.560;2023-04-15T07:22:39;9.40;91.40
63317;DHT22;49822;41.468;13.560;2023-04-15T07:27:29;9.50;90.90
63317;DHT22;49822;41.468;13.560;2023-04-15T07:29:58;9.50;91.60
63317;DHT22;49822;41.468;13.560;2023-04-15T07:40:06;9.50;92.40
63317;DHT22;49822;41.468;13.560;2023-04-15T07:42:35;9.50;92.90
63317;DHT22;49822;41.468;13.560;2023-04-15T07:45:06;9.50;92.80
63317;DHT22;49822;41.468;13.560;2023-04-15T07:47:45;9.40;93.00
63317;DHT22;49822;41.468;13.560;2023-04-15T07:50:31;9.40;92.70
63317;DHT22;49822;41.468;13.560;2023-04-15T07:53:44;9.50;92.90
63317;DHT22;49822;41.468;13.560;2023-04-15T07:56:24;9.50;91.70
63317;DHT22;49822;41.468;13.560;2023-04-15T07:59:41;9.40;92.00
63317;DHT22;49822;41.468;13.560;2023-04-15T08:05:11;9.50;92.30
63317;DHT22;49822;41.468;13.560;2023-04-15T08:08:00;9.50;91.90
63317;DHT22;49822;41.468;13.560;2023-04-15T08:10:28;9.50;91.50
63317;DHT22;49822;41.468;13.560;2023-04-15T08:12:56;9.50;91.70
63317;DHT22;49822;41.468;13.560;2023-04-15T08:15:26;9.40;91.90
63317;DHT22;49822;41.468;13.560;2023-04-15T08:17:56;9.40;92.20
63317;DHT22;49822;41.468;13.560;2023-04-15T08:20:25;9.50;92.10
63317;DHT22;49822;41.468;13.560;2023-04-15T08:22:53;9.50;92.10
63317;DHT22;49822;41.468;13.560;2023-04-15T08:25:21;9.50;91.80
63317;DHT22;49822;41.468;13.560;2023-04-15T08:27:49;9.50;92.60
63317;DHT22;49822;41.468;13.560;2023-04-15T08:30:18;9.50;92.90
63317;DHT22;49822;41.468;13.560;2023-04-15T08:32:52;9.50;92.90
63317;DHT22;49822;41.468;13.560;2023-04-15T08:35:20;9.60;92.70
63317;DHT22;49822;41.468;13.560;2023-04-15T08:37:48;9.60;92.80
63317;DHT22;49822;41.468;13.560;2023-04-15T08:40:15;9.50;93.40
63317;DHT22;49822;41.468;13.560;2023-04-15T08:42:45;9.50;93.50
63317;DHT22;49822;41.468;13.560;2023-04-15T08:45:15;9.60;93.50
63317;DHT22;49822;41.468;13.560;2023-04-15T08:47:51;9.70;93.40
63317;DHT22;49822;41.468;13.560;2023-04-15T08:50:24;9.70;93.70
63317;DHT22;49822;41.468;13.560;2023-04-15T08:52:55;9.80;93.50
63317;DHT22;49822;41.468;13.560;2023-04-15T08:55:32;9.70;94.40
63317;DHT22;49822;41.468;13.560;2023-04-15T08:58:03;9.70;94.40
63317;DHT22;49822;41.468;13.560;2023-04-15T09:00:33;9.70;94.10
63317;DHT22;49822;41.468;13.560;2023-04-15T09:03:06;9.80;93.90
63317;DHT22;49822;41.468;13.560;2023-04-15T09:05:35;9.80;93.70
63317;DHT22;49822;41.468;13.560;2023-04-15T13:26:44;13.50;93.20
63317;DHT22;49822;41.468;13.560;2023-04-15T13:29:12;13.30;93.90
63317;DHT22;49822;41.468;13.560;2023-04-15T13:31:40;13.20;93.40
63317;DHT22;49822;41.468;13.560;2023-04-15T13:34:07;13.10;93.50
63317;DHT22;49822;41.468;13.560;2023-04-15T13:36:35;13.00;93.00
63317;DHT22;49822;41.468;13.560;2023-04-15T13:39:02;12.80;93.50
63317;DHT22;49822;41.468;13.560;2023-04-15T13:41:31;12.60;94.20
63317;DHT22;49822;41.468;13.560;2023-04-15T13:43:59;12.40;94.70
63317;DHT22;49822;41.468;13.560;2023-04-15T13:46:26;12.50;94.70
63317;DHT22;49822;41.468;13.560;2023-04-15T13:48:54;12.50;94.70
63317;DHT22;49822;41.468;13.560;2023-04-15T13:51:22;12.30;95.00
63317;DHT22;49822;41.468;13.560;2023-04-15T13:53:49;12.30;94.70
63317;DHT22;49822;41.468;13.560;2023-04-15T13:56:16;12.20;94.50
63317;DHT22;49822;41.468;13.560;2023-04-15T13:58:44;12.10;94.30
63317;DHT22;49822;41.468;13.560;2023-04-15T14:01:12;11.90;95.30
63317;DHT22;49822;41.468;13.560;2023-04-15T14:03:39;11.80;95.10
63317;DHT22;49822;41.468;13.560;2023-04-15T14:06:07;11.70;94.80
63317;DHT22;49822;41.468;13.560;2023-04-15T14:08:34;11.70;93.30
63317;DHT22;49822;41.468;13.560;2023-04-15T14:11:02;11.70;92.80
63317;DHT22;49822;41.468;13.560;2023-04-15T14:13:30;11.90;93.90
63317;DHT22;49822;41.468;13.560;2023-04-15T14:15:58;12.00;94.00
63317;DHT22;49822;41.468;13.560;2023-04-15T14:18:25;12.10;94.30
63317;DHT22;49822;41.468;13.560;2023-04-15T14:20:53;12.20;93.00
63317;DHT22;49822;41.468;13.560;2023-04-15T14:23:20;12.30;92.70
63317;DHT22;49822;41.468;13.560;2023-04-15T14:25:49;12.40;92.80
63317;DHT22;49822;41.468;13.560;2023-04-15T14:28:17;12.40;93.30
63317;DHT22;49822;41.468;13.560;2023-04-15T14:30:44;12.50;93.20
63317;DHT22;49822;41.468;13.560;2023-04-15T14:33:12;12.70;93.30
63317;DHT22;49822;41.468;13.560;2023-04-15T14:35:40;12.70;93.40
63317;DHT22;49822;41.468;13.560;2023-04-15T14:38:09;12.60;93.70
63317;DHT22;49822;41.468;13.560;2023-04-15T14:40:38;12.50;93.30
63317;DHT22;49822;41.468;13.560;2023-04-15T14:43:06;12.50;93.40
63317;DHT22;49822;41.468;13.560;2023-04-15T14:45:37;12.40;93.80
63317;DHT22;49822;41.468;13.560;2023-04-15T14:48:12;12.30;94.20
63317;DHT22;49822;41.468;13.560;2023-04-15T14:50:40;12.10;94.90
63317;DHT22;49822;41.468;13.560;2023-04-15T14:53:09;11.90;95.30
63317;DHT22;49822;41.468;13.560;2023-04-15T14:55:37;11.90;95.40
63317;DHT22;49822;41.468;13.560;2023-04-15T14:58:05;12.00;95.30
63317;DHT22;49822;41.468;13.560;2023-04-15T15:00:36;11.90;95.30
63317;DHT22;49822;41.468;13.560;2023-04-15T15:03:09;11.90;94.90
63317;DHT22;49822;41.468;13.560;2023-04-15T15:05:45;11.90;95.40
63317;DHT22;49822;41.468;13.560;2023-04-15T15:08:13;11.70;95.70
63317;DHT22;49822;41.468;13.560;2023-04-15T15:10:41;11.80;95.40
63317;DHT22;49822;41.468;13.560;2023-04-15T15:13:15;11.80;95.40
63317;DHT22;49822;41.468;13.560;2023-04-15T15:15:44;11.70;95.40
63317;DHT22;49822;41.468;13.560;2023-04-15T15:18:12;11.70;95.40
63317;DHT22;49822;41.468;13.560;2023-04-15T15:20:39;11.80;95.60
63317;DHT22;49822;41.468;13.560;2023-04-15T15:23:07;11.70;95.90
63317;DHT22;49822;41.468;13.560;2023-04-15T15:25:34;11.40;96.40
63317;DHT22;49822;41.468;13.560;2023-04-15T15:28:01;11.40;96.20
63317;DHT22;49822;41.468;13.560;2023-04-15T15:30:30;11.40;95.90
63317;DHT22;49822;41.468;13.560;2023-04-15T15:33:00;11.40;95.80
63317;DHT22;49822;41.468;13.560;2023-04-15T15:35:28;11.50;95.80
63317;DHT22;49822;41.468;13.560;2023-04-15T15:37:55;11.40;95.00
63317;DHT22;49822;41.468;13.560;2023-04-15T15:40:23;11.40;95.50
63317;DHT22;49822;41.468;13.560;2023-04-15T15:42:51;11.40;95.70
63317;DHT22;49822;41.468;13.560;2023-04-15T15:45:19;11.30;95.70
63317;DHT22;49822;41.468;13.560;2023-04-15T15:47:50;11.20;95.10
63317;DHT22;49822;41.468;13.560;2023-04-15T15:50:17;11.20;95.60
63317;DHT22;49822;41.468;13.560;2023-04-15T15:52:46;11.20;95.90
63317;DHT22;49822;41.468;13.560;2023-04-15T15:55:14;11.30;96.10
63317;DHT22;49822;41.468;13.560;2023-04-15T15:57:41;11.10;95.70
63317;DHT22;49822;41.468;13.560;2023-04-15T16:00:09;11.00;95.80
63317;DHT22;49822;41.468;13.560;2023-04-15T16:02:39;11.00;95.70
63317;DHT22;49822;41.468;13.560;2023-04-15T16:05:26;11.10;96.10
63317;DHT22;49822;41.468;13.560;2023-04-15T16:07:54;11.00;96.40
63317;DHT22;49822;41.468;13.560;2023-04-15T16:10:22;10.90;96.80
63317;DHT22;49822;41.468;13.560;2023-04-15T16:12:50;10.90;97.20
63317;DHT22;49822;41.468;13.560;2023-04-15T16:15:19;11.00;97.00
63317;DHT22;49822;41.468;13.560;2023-04-15T16:17:51;11.00;97.10
63317;DHT22;49822;41.468;13.560;2023-04-15T16:20:18;11.00;96.90
63317;DHT22;49822;41.468;13.560;2023-04-15T16:22:46;11.00;97.60
63317;DHT22;49822;41.468;13.560;2023-04-15T16:25:13;10.80;98.30
63317;DHT22;49822;41.468;13.560;2023-04-15T16:27:41;10.80;98.10
63317;DHT22;49822;41.468;13.560;2023-04-15T16:30:30;10.90;97.30
63317;DHT22;49822;41.468;13.560;2023-04-15T16:33:00;10.90;96.70
63317;DHT22;49822;41.468;13.560;2023-04-15T16:35:28;10.90;96.60
63317;DHT22;49822;41.468;13.560;2023-04-15T16:37:55;10.90;97.00
63317;DHT22;49822;41.468;13.560;2023-04-15T16:40:23;10.80;96.70
63317;DHT22;49822;41.468;13.560;2023-04-15T16:42:51;10.70;96.40
63317;DHT22;49822;41.468;13.560;2023-04-15T16:45:19;10.80;96.30
63317;DHT22;49822;41.468;13.560;2023-04-15T16:47:51;10.80;96.10
63317;DHT22;49822;41.468;13.560;2023-04-15T16:50:19;10.80;96.40
63317;DHT22;49822;41.468;13.560;2023-04-15T16:52:46;10.70;96.20
63317;DHT22;49822;41.468;13.560;2023-04-15T16:55:13;10.70;96.70
63317;DHT22;49822;41.468;13.560;2023-04-15T17:01:32;10.80;96.20
63317;DHT22;49822;41.468;13.560;2023-04-15T17:03:59;10.80;96.20
63317;DHT22;49822;41.468;13.560;2023-04-15T17:09:03;10.80;95.50
63317;DHT22;49822;41.468;13.560;2023-04-15T17:14:22;10.80;95.80
63317;DHT22;49822;41.468;13.560;2023-04-15T17:16:50;10.90;95.70
63317;DHT22;49822;41.468;13.560;2023-04-15T17:19:17;10.90;95.60
63317;DHT22;49822;41.468;13.560;2023-04-15T17:21:45;10.90;95.80
63317;DHT22;49822;41.468;13.560;2023-04-15T17:24:12;10.90;95.80
63317;DHT22;49822;41.468;13.560;2023-04-15T17:26:40;10.90;95.90
63317;DHT22;49822;41.468;13.560;2023-04-15T17:29:07;10.90;95.80
63317;DHT22;49822;41.468;13.560;2023-04-15T17:31:35;10.90;95.80
63317;DHT22;49822;41.468;13.560;2023-04-15T17:34:02;10.70;96.30
63317;DHT22;49822;41.468;13.560;2023-04-15T17:36:37;10.40;97.50
63317;DHT22;49822;41.468;13.560;2023-04-15T17:39:04;10.30;97.60
63317;DHT22;49822;41.468;13.560;2023-04-15T17:41:32;10.30;98.00
63317;DHT22;49822;41.468;13.560;2023-04-15T17:44:00;10.40;98.30
63317;DHT22;49822;41.468;13.560;2023-04-15T17:46:27;10.50;98.00
63317;DHT22;49822;41.468;13.560;2023-04-15T17:48:54;10.60;97.60
63317;DHT22;49822;41.468;13.560;2023-04-15T17:51:22;10.60;97.20
63317;DHT22;49822;41.468;13.560;2023-04-15T17:54:05;10.70;96.80
63317;DHT22;49822;41.468;13.560;2023-04-15T17:56:33;10.60;96.70
63317;DHT22;49822;41.468;13.560;2023-04-15T17:59:01;10.80;96.50
63317;DHT22;49822;41.468;13.560;2023-04-15T18:01:29;10.80;96.40
63317;DHT22;49822;41.468;13.560;2023-04-15T18:03:57;10.90;95.90
63317;DHT22;49822;41.468;13.560;2023-04-15T18:06:25;10.90;95.70
63317;DHT22;49822;41.468;13.560;2023-04-15T18:08:53;10.90;95.60
63317;DHT22;49822;41.468;13.560;2023-04-15T18:11:20;10.80;96.10
63317;DHT22;49822;41.468;13.560;2023-04-15T18:13:47;10.80;96.20
63317;DHT22;49822;41.468;13.560;2023-04-15T18:16:15;10.80;95.90
63317;DHT22;49822;41.468;13.560;2023-04-15T18:18:42;10.80;95.70
63317;DHT22;49822;41.468;13.560;2023-04-15T18:21:10;10.90;95.90
63317;DHT22;49822;41.468;13.560;2023-04-15T18:23:39;10.90;95.80
63317;DHT22;49822;41.468;13.560;2023-04-15T18:26:07;10.90;96.10
63317;DHT22;49822;41.468;13.560;2023-04-15T18:28:34;10.90;95.70
63317;DHT22;49822;41.468;13.560;2023-04-15T18:31:04;10.80;95.90
63317;DHT22;49822;41.468;13.560;2023-04-15T18:33:32;10.80;95.80
63317;DHT22;49822;41.468;13.560;2023-04-15T18:36:01;10.70;96.00
63317;DHT22;49822;41.468;13.560;2023-04-15T18:38:29;10.70;96.00
63317;DHT22;49822;41.468;13.560;2023-04-15T18:40:57;10.60;96.00
63317;DHT22;49822;41.468;13.560;2023-04-15T18:43:25;10.70;95.90
63317;DHT22;49822;41.468;13.560;2023-04-15T18:45:53;10.70;95.80
63317;DHT22;49822;41.468;13.560;2023-04-15T18:48:21;10.70;96.00
63317;DHT22;49822;41.468;13.560;2023-04-15T18:50:48;10.60;95.90
63317;DHT22;49822;41.468;13.560;2023-04-15T18:53:20;10.60;96.10
63317;DHT22;49822;41.468;13.560;2023-04-15T18:55:47;10.50;96.30
63317;DHT22;49822;41.468;13.560;2023-04-15T18:58:15;10.50;95.70
63317;DHT22;49822;41.468;13.560;2023-04-15T19:00:43;10.50;95.70
63317;DHT22;49822;41.468;13.560;2023-04-15T19:03:12;10.50;95.20
63317;DHT22;49822;41.468;13.560;2023-04-15T19:05:39;10.50;95.10
63317;DHT22;49822;41.468;13.560;2023-04-15T19:08:07;10.50;95.10
63317;DHT22;49822;41.468;13.560;2023-04-15T19:10:34;10.50;95.00
63317;DHT22;49822;41.468;13.560;2023-04-15T19:13:02;10.40;94.60
63317;DHT22;49822;41.468;13.560;2023-04-15T19:15:31;10.50;94.70
63317;DHT22;49822;41.468;13.560;2023-04-15T19:18:00;10.50;94.40
63317;DHT22;49822;41.468;13.560;2023-04-15T19:20:28;10.50;94.20
63317;DHT22;49822;41.468;13.560;2023-04-15T19:22:56;10.20;94.30
63317;DHT22;49822;41.468;13.560;2023-04-15T19:25:24;10.10;95.10
63317;DHT22;49822;41.468;13.560;2023-04-15T19:27:51;10.10;95.70
63317;DHT22;49822;41.468;13.560;2023-04-15T19:30:20;10.10;95.80
63317;DHT22;49822;41.468;13.560;2023-04-15T19:32:52;10.10;95.70
63317;DHT22;49822;41.468;13.560;2023-04-15T19:35:19;10.20;95.40
63317;DHT22;49822;41.468;13.560;2023-04-15T19:37:47;10.30;94.70
63317;DHT22;49822;41.468;13.560;2023-04-15T19:40:15;10.10;94.20
63317;DHT22;49822;41.468;13.560;2023-04-15T19:42:42;10.10;95.00
63317;DHT22;49822;41.468;13.560;2023-04-15T19:45:10;10.10;94.80
63317;DHT22;49822;41.468;13.560;2023-04-15T19:47:37;10.20;94.80
63317;DHT22;49822;41.468;13.560;2023-04-15T19:50:06;10.20;94.40
63317;DHT22;49822;41.468;13.560;2023-04-15T19:52:33;10.20;94.10
63317;DHT22;49822;41.468;13.560;2023-04-15T19:55:01;10.00;95.10
63317;DHT22;49822;41.468;13.560;2023-04-15T19:57:29;9.80;95.50
63317;DHT22;49822;41.468;13.560;2023-04-15T19:59:56;9.80;95.80
63317;DHT22;49822;41.468;13.560;2023-04-15T20:02:24;9.90;95.70
63317;DHT22;49822;41.468;13.560;2023-04-15T20:04:52;10.00;95.30
63317;DHT22;49822;41.468;13.560;2023-04-15T20:07:19;10.00;95.20
63317;DHT22;49822;41.468;13.560;2023-04-15T20:09:46;10.10;95.00
63317;DHT22;49822;41.468;13.560;2023-04-15T20:12:14;10.10;95.20
63317;DHT22;49822;41.468;13.560;2023-04-15T20:15:02;10.10;95.10
63317;DHT22;49822;41.468;13.560;2023-04-15T20:17:34;10.20;95.10
63317;DHT22;49822;41.468;13.560;2023-04-15T20:20:05;10.30;94.70